createdAt,value
2024-01-05T07:44:10.967Z,95427.50
2024-01-05T07:46:42.749Z,95433.00
2024-01-05T07:49:10.737Z,95432.22
2024-01-05T07:51:41.943Z,95435.59
2024-01-05T07:54:10.019Z,95443.16
2024-01-05T07:56:39.283Z,95455.88
2024-01-05T07:59:05.832Z,95450.72
2024-01-05T08:01:34.809Z,95454.09
2024-01-05T08:04:02.604Z,95437.81
2024-01-05T08:06:30.429Z,95447.00
2024-01-05T08:08:58.081Z,95445.88
2024-01-05T08:11:25.662Z,95440.34
2024-01-05T08:13:53.581Z,95440.81
2024-01-05T08:16:21.113Z,95437.09
2024-01-05T08:18:50.039Z,95428.19
2024-01-05T08:21:17.588Z,95431.25
2024-01-05T08:23:45.087Z,95436.69
2024-01-05T08:26:12.585Z,95434.38
2024-01-05T08:28:40.159Z,95438.22
2024-01-05T08:31:08.641Z,95435.13
2024-01-05T08:33:36.459Z,95438.50
2024-01-05T08:36:05.538Z,95448.84
2024-01-05T08:38:33.012Z,95434.16
2024-01-05T08:41:00.513Z,95434.97
2024-01-05T08:43:28.591Z,95438.34
2024-01-05T08:45:56.159Z,95431.84
2024-01-05T08:48:23.764Z,95441.03
2024-01-05T08:50:51.302Z,95438.13
2024-01-05T08:53:22.082Z,95440.97
2024-01-05T08:55:49.640Z,95439.97
2024-01-05T08:58:17.402Z,95436.06
2024-01-05T09:00:45.055Z,95431.81
2024-01-05T09:03:12.676Z,95433.88
2024-01-05T09:05:40.324Z,95429.16
2024-01-05T09:08:07.847Z,95436.56
2024-01-05T09:10:36.670Z,95428.44
2024-01-05T09:13:04.781Z,95431.31
2024-01-05T09:15:32.307Z,95429.00
2024-01-05T09:18:00.009Z,95428.94
2024-01-05T09:20:27.605Z,95426.44
2024-01-05T09:22:55.128Z,95433.47
2024-01-05T09:25:23.370Z,95431.97
2024-01-05T09:27:52.195Z,95439.34
2024-01-05T09:30:19.863Z,95431.06
2024-01-05T09:32:47.930Z,95437.47
2024-01-05T09:35:15.820Z,95441.13
2024-01-05T09:37:43.302Z,95443.97
2024-01-05T09:40:12.494Z,95438.88
2024-01-05T09:42:42.295Z,95448.53
2024-01-05T09:45:13.113Z,95446.22
2024-01-05T09:47:41.724Z,95443.88
2024-01-05T09:50:11.640Z,95463.91
2024-01-05T09:52:40.050Z,95458.00
2024-01-05T09:55:08.372Z,95452.91
2024-01-05T09:57:37.529Z,95452.78
2024-01-05T10:00:05.858Z,95452.66
2024-01-05T10:02:41.991Z,95455.16
2024-01-05T10:05:10.720Z,95456.03
2024-01-05T10:07:43.045Z,95456.88
2024-01-05T10:10:12.094Z,95467.50
2024-01-05T10:12:39.661Z,95460.16
2024-01-05T10:15:08.353Z,95456.03
2024-01-05T10:17:37.487Z,95457.09
2024-01-05T10:20:15.907Z,95448.75
2024-01-05T10:22:47.569Z,95448.81
2024-01-05T10:25:16.343Z,95448.88
2024-01-05T10:27:43.968Z,95450.50
2024-01-05T10:30:24.087Z,95442.59
2024-01-05T10:33:04.504Z,95444.06
2024-01-05T10:35:32.177Z,95444.72
2024-01-05T10:38:10.684Z,95442.78
2024-01-05T10:40:38.356Z,95445.44
2024-01-05T10:43:10.781Z,95437.06
2024-01-05T10:45:40.121Z,95434.53
2024-01-05T10:48:11.457Z,95425.97
2024-01-05T10:50:42.149Z,95429.59
2024-01-05T10:53:10.548Z,95423.84
2024-01-05T10:55:39.738Z,95425.06
2024-01-05T10:58:09.194Z,95423.88
2024-01-05T11:00:37.005Z,95428.66
2024-01-05T11:03:12.911Z,95433.84
2024-01-05T11:05:43.069Z,95425.88
2024-01-05T11:08:24.621Z,95417.91
2024-01-05T11:11:08.243Z,95410.75
2024-01-05T11:13:54.174Z,95412.13
2024-01-05T11:16:42.455Z,95409.16
2024-01-05T11:19:31.738Z,95407.16
2024-01-05T11:22:03.009Z,95401.97
2024-01-05T11:24:30.896Z,95404.38
2024-01-05T11:26:58.700Z,95402.56
2024-01-05T11:29:49.170Z,95403.78
2024-01-05T11:32:35.401Z,95399.38
2024-01-05T11:35:05.881Z,95400.78
2024-01-05T11:37:34.075Z,95393.81
2024-01-05T11:40:02.080Z,95393.59
2024-01-05T11:42:30.976Z,95390.63
2024-01-05T11:44:59.824Z,95377.25
2024-01-05T11:47:46.684Z,95382.06
2024-01-05T11:50:33.072Z,95378.06
2024-01-05T11:53:08.428Z,95378.47
2024-01-05T11:55:41.138Z,95376.50
2024-01-05T11:58:08.986Z,95370.09
2024-01-05T12:00:37.347Z,95385.31
2024-01-05T12:03:06.189Z,95391.91
2024-01-05T12:05:35.181Z,95368.72
2024-01-05T12:08:02.856Z,95359.09
2024-01-05T12:10:31.274Z,95363.09
2024-01-05T12:12:59.803Z,95366.31
2024-01-05T12:15:27.483Z,95360.91
2024-01-05T12:18:04.729Z,95366.53
2024-01-05T12:20:32.516Z,95366.31
2024-01-05T12:23:01.474Z,95362.53
2024-01-05T12:25:29.311Z,95365.56
2024-01-05T12:27:57.217Z,95365.38
2024-01-05T12:30:25.159Z,95358.19
2024-01-05T12:32:53.574Z,95363.38
2024-01-05T12:35:21.284Z,95363.38
2024-01-05T12:37:53.338Z,95360.78
2024-01-05T12:40:25.611Z,95364.16
2024-01-05T12:42:53.949Z,95365.19
2024-01-05T12:45:23.858Z,95365.19
2024-01-05T12:47:52.392Z,95364.34
2024-01-05T12:50:27.386Z,95362.59
2024-01-05T12:52:55.171Z,95361.75
2024-01-05T12:55:31.468Z,95358.97
2024-01-05T12:58:03.393Z,95358.97
2024-01-05T13:00:31.813Z,95358.38
2024-01-05T13:02:59.682Z,95361.75
2024-01-05T13:05:30.932Z,95366.16
2024-01-05T13:07:59.965Z,95358.19
2024-01-05T13:10:27.793Z,95353.97
2024-01-05T13:12:56.912Z,95349.59
2024-01-05T13:15:24.604Z,95347.00
2024-01-05T13:17:53.057Z,95346.78
2024-01-05T13:20:24.089Z,95349.38
2024-01-05T13:22:51.901Z,95347.00
2024-01-05T13:25:19.511Z,95353.97
2024-01-05T13:27:47.158Z,95357.75
2024-01-05T13:30:16.446Z,95351.34
2024-01-05T13:32:44.883Z,95356.53
2024-01-05T13:35:12.817Z,95349.94
2024-01-05T13:37:40.976Z,95350.53
2024-01-05T13:40:10.050Z,95344.13
2024-01-05T13:42:37.894Z,95348.53
2024-01-05T13:45:07.724Z,95352.13
2024-01-05T13:47:37.093Z,95355.09
2024-01-05T13:50:05.093Z,95353.31
2024-01-05T13:52:32.661Z,95362.09
2024-01-05T13:55:00.296Z,95363.69
2024-01-05T13:57:27.857Z,95359.09
2024-01-05T16:04:01.173Z,95409.91
2024-01-05T16:06:28.722Z,95415.50
2024-01-05T16:08:56.249Z,95408.50
2024-01-05T16:11:30.466Z,95411.31
2024-01-05T16:13:57.978Z,95411.31
2024-01-05T16:16:26.721Z,95406.50
2024-01-05T17:00:43.191Z,95391.47
2024-01-05T17:03:14.354Z,95389.50
2024-01-05T17:05:44.186Z,95389.50
2024-01-05T17:08:10.890Z,95397.88
2024-01-05T17:10:38.427Z,95391.91
2024-01-05T17:13:06.070Z,95379.72
2024-01-05T17:15:33.719Z,95384.13
2024-01-05T17:18:03.091Z,95386.50
2024-01-05T17:20:31.126Z,95382.31
2024-01-05T17:22:59.667Z,95381.53
2024-01-05T17:25:27.520Z,95385.88
2024-01-05T17:27:55.228Z,95388.47
2024-01-05T17:30:23.077Z,95378.94
2024-01-05T17:32:51.031Z,95388.69
2024-01-05T17:35:21.136Z,95393.06
2024-01-05T17:37:48.816Z,95386.28
2024-01-05T17:40:16.574Z,95397.47
2024-01-05T17:42:44.290Z,95405.06
2024-01-05T17:45:11.984Z,95405.06
2024-01-05T17:47:40.026Z,95404.06
2024-01-05T17:50:08.865Z,95408.25
2024-01-05T17:52:37.849Z,95408.88
2024-01-05T17:55:05.694Z,95409.50
2024-01-05T17:57:33.275Z,95414.69
2024-01-05T18:00:00.941Z,95421.47
2024-01-05T18:02:29.059Z,95427.66
2024-01-05T18:04:56.901Z,95423.44
2024-01-05T18:07:24.556Z,95426.03
2024-01-05T18:09:54.490Z,95427.03
2024-01-05T18:12:22.903Z,95426.25
2024-01-05T18:14:50.486Z,95435.03
2024-01-05T18:17:18.001Z,95434.22
2024-01-05T18:19:45.648Z,95431.00
2024-01-05T18:22:14.246Z,95424.22
2024-01-05T18:24:42.597Z,95426.22
2024-01-05T18:27:11.481Z,95427.19
2024-01-05T18:29:39.091Z,95423.00
2024-01-05T18:32:07.666Z,95424.59
2024-01-05T18:34:36.166Z,95421.03
2024-01-05T18:37:03.914Z,95430.41
2024-01-05T18:39:31.485Z,95433.00
2024-01-05T18:41:58.999Z,95431.19
2024-01-05T18:44:27.897Z,95431.19
2024-01-05T18:46:55.519Z,95426.00
2024-01-05T18:49:23.236Z,95434.81
2024-01-05T18:51:53.194Z,95433.78
2024-01-05T18:54:21.022Z,95433.59
2024-01-05T18:56:48.598Z,95431.00
2024-01-05T18:59:16.248Z,95430.22
2024-01-05T19:01:48.526Z,95428.41
2024-01-05T19:04:16.212Z,95421.81
2024-01-05T19:06:44.793Z,95421.41
2024-01-05T19:09:12.699Z,95426.78
2024-01-05T19:11:42.004Z,95429.75
2024-01-05T19:14:09.599Z,95434.53
2024-01-05T19:16:42.396Z,95445.28
2024-01-05T19:19:12.690Z,95445.28
2024-01-05T19:21:49.852Z,95445.69
2024-01-05T19:24:24.237Z,95444.47
2024-01-05T19:26:52.147Z,95460.03
2024-01-05T19:29:19.725Z,95460.38
2024-01-05T19:31:47.401Z,95469.34
2024-01-05T19:34:17.632Z,95474.72
2024-01-05T19:36:45.840Z,95478.50
2024-01-05T19:39:14.257Z,95474.66
2024-01-05T19:41:45.704Z,95479.44
2024-01-05T19:44:15.416Z,95467.47
2024-01-05T19:46:43.019Z,95467.84
2024-01-05T19:49:10.919Z,95463.63
2024-01-05T19:51:46.714Z,95460.06
2024-01-05T19:54:17.035Z,95455.84
2024-01-05T19:56:45.077Z,95455.84
2024-01-05T19:59:13.002Z,95459.44
2024-01-05T20:01:46.021Z,95457.81
2024-01-05T20:04:14.517Z,95465.44
2024-01-05T20:06:42.348Z,95460.25
2024-01-05T20:09:11.883Z,95463.63
2024-01-05T20:11:39.584Z,95464.63
2024-01-05T20:14:07.435Z,95463.84
2024-01-05T20:16:35.014Z,95466.22
2024-01-05T20:19:04.642Z,95464.25
2024-01-05T20:21:33.032Z,95469.25
2024-01-05T20:24:02.147Z,95459.69
2024-01-05T20:26:31.797Z,95462.28
2024-01-05T20:29:00.285Z,95460.69
2024-01-05T20:31:29.354Z,95464.88
2024-01-05T20:33:57.344Z,95459.06
2024-01-05T20:36:25.087Z,95458.44
2024-01-05T20:38:52.609Z,95468.19
2024-01-05T20:41:20.336Z,95463.03
2024-01-05T20:43:49.226Z,95452.47
2024-01-05T20:46:17.553Z,95450.31
2024-01-05T20:48:45.409Z,95440.53
2024-01-05T20:51:13.081Z,95442.53
2024-01-05T20:53:40.604Z,95443.88
2024-01-05T20:56:08.474Z,95452.84
2024-01-05T20:58:36.003Z,95446.88
2024-01-05T21:01:05.414Z,95446.25
2024-01-05T21:03:33.521Z,95442.03
2024-01-05T21:06:02.703Z,95452.59
2024-01-05T21:08:30.507Z,95443.41
2024-01-05T21:10:58.772Z,95441.06
2024-01-05T21:13:26.507Z,95438.25
2024-01-05T21:15:54.832Z,95429.88
2024-01-05T21:18:23.948Z,95430.69
2024-01-05T21:20:51.569Z,95437.47
2024-01-05T21:23:19.385Z,95439.09
2024-01-05T21:25:46.949Z,95443.88
2024-01-05T21:28:14.467Z,95451.06
2024-01-05T21:30:44.500Z,95445.44
2024-01-05T21:33:12.258Z,95444.63
2024-01-05T21:35:42.167Z,95439.84
2024-01-05T21:38:09.670Z,95441.81
2024-01-05T21:40:37.689Z,95443.78
2024-01-05T21:43:05.514Z,95445.94
2024-01-05T21:45:33.085Z,95439.34
2024-01-05T21:48:00.699Z,95442.19
2024-01-05T21:50:28.393Z,95447.78
2024-01-05T21:52:57.311Z,95458.00
2024-01-05T21:55:24.803Z,95448.03
2024-01-05T21:57:53.102Z,95459.63
2024-01-05T22:00:20.943Z,95458.66
2024-01-05T22:02:48.632Z,95460.06
2024-01-05T22:05:16.205Z,95462.66
2024-01-05T22:07:44.221Z,95452.66
2024-01-05T22:10:13.566Z,95458.41
2024-01-05T22:12:41.173Z,95455.41
2024-01-05T22:15:09.445Z,95454.41
2024-01-05T22:17:37.110Z,95454.66
2024-01-05T22:20:05.186Z,95454.66
2024-01-05T22:22:32.698Z,95452.41
2024-01-05T22:25:00.221Z,95459.84
2024-01-05T22:27:29.086Z,95465.44
2024-01-05T22:29:56.633Z,95465.44
2024-01-05T22:32:24.369Z,95465.59
2024-01-05T22:34:51.965Z,95470.56
2024-01-05T22:37:21.411Z,95473.78
2024-01-05T22:39:49.810Z,95467.22
2024-01-05T22:42:17.509Z,95469.22
2024-01-05T22:44:46.477Z,95462.44
2024-01-05T22:47:14.193Z,95470.22
2024-01-05T22:49:42.107Z,95465.38
2024-01-05T22:52:09.792Z,95468.16
2024-01-05T22:54:37.755Z,95469.78
2024-01-05T22:57:06.725Z,95463.78
2024-01-05T22:59:34.674Z,95458.59
2024-01-05T23:02:04.520Z,95458.22
2024-01-05T23:04:32.099Z,95455.44
2024-01-05T23:06:59.758Z,95459.06
2024-01-05T23:09:27.403Z,95462.28
2024-01-05T23:11:54.935Z,95456.47
2024-01-05T23:14:22.562Z,95456.25
2024-01-05T23:16:50.973Z,95447.84
2024-01-05T23:19:20.097Z,95456.81
2024-01-05T23:21:47.978Z,95451.00
2024-01-05T23:24:15.703Z,95448.59
2024-01-05T23:26:43.636Z,95449.78
2024-01-05T23:29:11.174Z,95452.53
2024-01-05T23:31:40.140Z,95453.53
2024-01-05T23:34:15.966Z,95463.34
2024-01-05T23:36:46.389Z,95465.78
2024-01-05T23:39:14.916Z,95456.38
2024-01-05T23:41:42.923Z,95467.34
2024-01-05T23:44:10.610Z,95467.97
2024-01-05T23:46:38.174Z,95472.97
2024-01-05T23:49:05.864Z,95475.00
2024-01-05T23:51:33.852Z,95476.25
2024-01-05T23:54:02.844Z,95481.44
2024-01-05T23:56:30.648Z,95488.41
2024-01-05T23:58:58.322Z,95486.00
